Time;durP1;ratioP1;P1;durP2;ratioP2;P2;SDS_P1;SDS_P2;PMS_P1;PMS_P2;Temp;Humidity;BMP_temperature;BMP_pressure;BME280_temperature;BME280_humidity;BME280_pressure;Samples;Min_cycle;Max_cycle;Signal;HPM_P1;HPM_P2
2024/04/22 00:01:53;;;;;;;;;;;;;;;16.83;49.81;100260.53;5386038;26;1864;-64
2024/04/22 00:04:19;;;;;;;;;;;;;;;16.54;49.16;100261.31;5386489;26;1131;-63
2024/04/22 00:06:45;;;;;;;;;;;;;;;16.38;48.32;100266.09;5386167;26;1125;-63
2024/04/22 00:09:11;;;;;;;;;;;;;;;17.13;49.12;100256.72;5363394;26;1228;-62
2024/04/22 00:11:37;;;;;;;;;;;;;;;16.52;49.33;100271.75;5386407;26;1159;-61
2024/04/22 00:14:02;;;;;;;;;;;;;;;17.04;49.46;100281.25;5385469;26;2794;-62
2024/04/22 00:16:28;;;;;;;;;;;;;;;17.12;49.94;100276.25;5386566;26;1172;-62
2024/04/22 00:18:53;;;;;;;;;;;;;;;16.64;49.58;100277.69;5386884;26;1273;-62
2024/04/22 00:21:19;;;;;;;;;;;;;;;17.44;49.86;100262.69;5386362;26;1826;-63
2024/04/22 00:23:44;;;;;;;;;;;;;;;16.74;50.18;100263.88;5379466;26;1258;-63
2024/04/22 00:26:10;;;;;;;;;;;;;;;16.53;49.31;100270.66;5385718;26;1246;-64
2024/04/22 00:28:35;;;;;;;;;;;;;;;16.39;48.74;100282.25;5385688;26;1282;-63
2024/04/22 00:31:01;;;;;;;;;;;;;;;16.68;49.15;100284.25;5385806;26;1141;-64
2024/04/22 00:33:26;;;;;;;;;;;;;;;16.86;49.75;100287.44;5386752;26;1290;-63
2024/04/22 00:35:55;;;;;;;;;;;;;;;16.44;49.25;100289.66;5386445;26;1175;-64
2024/04/22 00:38:20;;;;;;;;;;;;;;;16.33;48.27;100277.91;5385921;26;1070;-63
2024/04/22 00:40:46;;;;;;;;;;;;;;;16.22;47.68;100274.41;5385902;26;1868;-63
2024/04/22 00:43:11;;;;;;;;;;;;;;;17.34;48.75;100262.00;5388962;26;2773;-62
2024/04/22 00:45:37;;;;;;;;;;;;;;;16.54;49.40;100266.81;5385705;26;1350;-63
2024/04/22 00:48:02;;;;;;;;;;;;;;;16.45;49.24;100263.84;5385785;26;1290;-64
2024/04/22 00:50:28;;;;;;;;;;;;;;;17.02;49.65;100264.22;5385555;26;1208;-65
2024/04/22 00:52:54;;;;;;;;;;;;;;;16.73;49.68;100265.00;5362525;26;1315;-64
2024/04/22 00:55:19;;;;;;;;;;;;;;;18.29;48.51;100264.97;5385757;26;1319;-64
2024/04/22 00:57:45;;;;;;;;;;;;;;;17.22;50.26;100270.63;5385746;26;1271;-64
2024/04/22 01:00:12;;;;;;;;;;;;;;;16.80;49.69;100283.06;5386071;26;1235;-65
2024/04/22 01:02:37;;;;;;;;;;;;;;;16.57;48.79;100277.22;5385058;26;1822;-65
2024/04/22 01:05:03;;;;;;;;;;;;;;;17.33;49.91;100276.84;5385889;26;1129;-65
2024/04/22 01:07:29;;;;;;;;;;;;;;;16.96;50.15;100279.13;5385467;26;1148;-63
2024/04/22 01:09:55;;;;;;;;;;;;;;;16.63;49.48;100281.53;5354752;26;1188;-64
2024/04/22 01:12:20;;;;;;;;;;;;;;;16.54;49.02;100277.78;5385969;26;2732;-63
2024/04/22 01:14:46;;;;;;;;;;;;;;;17.22;49.80;100276.13;5354161;26;1169;-63
2024/04/22 01:17:11;;;;;;;;;;;;;;;16.69;49.55;100276.84;5385832;26;1357;-63
2024/04/22 01:19:37;;;;;;;;;;;;;;;17.22;50.00;100265.13;5385930;26;1048;-62
2024/04/22 01:22:04;;;;;;;;;;;;;;;17.01;50.08;100265.34;5385246;26;1821;-62
2024/04/22 01:24:29;;;;;;;;;;;;;;;16.63;49.47;100270.56;5383873;26;1024;-62
2024/04/22 01:26:54;;;;;;;;;;;;;;;16.49;48.75;100269.59;5384568;26;1128;-63
2024/04/22 01:29:20;;;;;;;;;;;;;;;17.16;49.68;100271.81;5354204;26;1412;-62
2024/04/22 01:31:45;;;;;;;;;;;;;;;16.70;49.71;100281.22;5385510;26;1232;-64
2024/04/22 01:34:11;;;;;;;;;;;;;;;16.51;48.76;100279.19;5385458;26;1203;-63
2024/04/22 01:36:40;;;;;;;;;;;;;;;16.36;48.24;100274.59;5385395;26;1211;-64
2024/04/22 01:39:07;;;;;;;;;;;;;;;16.95;49.59;100279.41;5384842;26;1132;-63
2024/04/22 01:41:32;;;;;;;;;;;;;;;16.55;49.05;100262.94;5384882;26;1822;-64
2024/04/22 01:43:58;;;;;;;;;;;;;;;16.38;48.77;100264.19;5384940;26;3084;-64
2024/04/22 01:46:23;;;;;;;;;;;;;;;17.07;49.22;100275.19;5384942;26;1236;-64
2024/04/22 01:48:49;;;;;;;;;;;;;;;16.56;49.16;100281.06;5385076;26;1236;-64
2024/04/22 01:51:14;;;;;;;;;;;;;;;16.46;48.14;100281.13;5384564;26;1164;-64
2024/04/22 01:53:40;;;;;;;;;;;;;;;17.07;49.02;100285.34;5384889;26;1160;-60
2024/04/22 01:56:05;;;;;;;;;;;;;;;16.70;49.34;100286.72;5384685;26;1216;-61
2024/04/22 01:58:31;;;;;;;;;;;;;;;16.47;48.62;100285.53;5384994;26;1319;-61
2024/04/22 02:01:02;;;;;;;;;;;;;;;16.27;47.97;100289.19;5385058;26;1830;-61
2024/04/22 02:03:28;;;;;;;;;;;;;;;16.93;49.03;100286.00;5384646;26;1163;-61
2024/04/22 02:05:53;;;;;;;;;;;;;;;16.49;48.82;100291.53;5384219;26;1353;-61
2024/04/22 02:08:19;;;;;;;;;;;;;;;16.85;49.13;100291.28;5384819;26;1100;-61
2024/04/22 02:10:44;;;;;;;;;;;;;;;16.97;49.45;100291.75;5384846;26;1252;-61
2024/04/22 02:13:10;;;;;;;;;;;;;;;16.57;48.93;100293.69;5384844;26;2831;-62
2024/04/22 02:15:35;;;;;;;;;;;;;;;16.81;49.01;100298.44;5383755;26;1035;-62
2024/04/22 02:18:01;;;;;;;;;;;;;;;17.26;49.21;100302.75;5384315;26;1180;-62
2024/04/22 02:20:26;;;;;;;;;;;;;;;16.69;48.99;100301.53;5361399;26;1137;-62
2024/04/22 02:22:52;;;;;;;;;;;;;;;16.49;48.26;100314.31;5384607;26;1825;-64
2024/04/22 02:25:17;;;;;;;;;;;;;;;16.37;47.66;100311.09;5384202;26;1176;-64
2024/04/22 02:27:43;;;;;;;;;;;;;;;17.15;48.72;100314.94;5383814;26;1005;-63
2024/04/22 02:30:08;;;;;;;;;;;;;;;16.73;49.50;100316.34;5383846;26;1595;-63
2024/04/22 02:32:34;;;;;;;;;;;;;;;16.52;48.54;100313.75;5384899;26;1169;-63
2024/04/22 02:35:00;;;;;;;;;;;;;;;16.45;48.39;100305.00;5384043;26;1117;-63
2024/04/22 02:37:25;;;;;;;;;;;;;;;16.96;49.16;100320.31;5387065;26;1209;-63
2024/04/22 02:39:51;;;;;;;;;;;;;;;16.50;48.98;100320.63;5387364;26;1581;-63
2024/04/22 02:42:16;;;;;;;;;;;;;;;16.32;48.71;100325.66;5388594;26;2718;-63
2024/04/22 02:44:41;;;;;;;;;;;;;;;17.03;49.09;100312.56;5390204;26;1128;-64
2024/04/22 02:47:07;;;;;;;;;;;;;;;16.45;49.18;100312.41;5387964;26;1279;-65
2024/04/22 02:49:32;;;;;;;;;;;;;;;16.30;48.42;100316.91;5388292;26;1351;-63
2024/04/22 02:51:58;;;;;;;;;;;;;;;16.28;47.51;100323.78;5388028;26;1052;-63
2024/04/22 02:54:28;;;;;;;;;;;;;;;17.38;48.30;100329.84;5389180;26;1270;-64
2024/04/22 02:56:56;;;;;;;;;;;;;;;16.56;49.10;100327.72;5387853;26;1227;-64
2024/04/22 02:59:22;;;;;;;;;;;;;;;16.35;48.30;100341.53;5388384;26;1184;-63
2024/04/22 03:01:50;;;;;;;;;;;;;;;17.35;48.35;100344.16;5388094;26;1822;-63
2024/04/22 03:04:16;;;;;;;;;;;;;;;16.65;49.09;100345.25;5388058;26;1365;-63
2024/04/22 03:06:41;;;;;;;;;;;;;;;16.36;48.41;100353.38;5387780;26;1277;-62
2024/04/22 03:09:07;;;;;;;;;;;;;;;16.25;47.74;100350.66;5388105;26;1209;-62
2024/04/22 03:11:32;;;;;;;;;;;;;;;17.04;48.38;100358.16;5387814;26;1279;-63
2024/04/22 03:13:58;;;;;;;;;;;;;;;16.46;48.74;100363.47;5387872;26;1302;-62
2024/04/22 03:16:23;;;;;;;;;;;;;;;16.30;48.00;100355.31;5386546;26;1188;-65
2024/04/22 03:18:49;;;;;;;;;;;;;;;16.97;48.34;100367.81;5387501;26;1259;-64
2024/04/22 03:21:14;;;;;;;;;;;;;;;16.58;49.06;100372.19;5387846;26;1824;-63
2024/04/22 03:23:40;;;;;;;;;;;;;;;16.32;48.33;100380.53;5388144;26;1192;-62
2024/04/22 03:26:05;;;;;;;;;;;;;;;16.22;47.72;100383.34;5387579;26;1183;-62
2024/04/22 03:28:31;;;;;;;;;;;;;;;17.32;48.09;100401.63;5387215;26;1223;-62
2024/04/22 03:30:56;;;;;;;;;;;;;;;16.55;48.77;100400.19;5387364;26;1250;-62
2024/04/22 03:33:22;;;;;;;;;;;;;;;17.30;48.69;100410.16;5387962;26;1176;-61
2024/04/22 03:35:47;;;;;;;;;;;;;;;17.40;49.12;100425.75;5386824;26;1256;-65
2024/04/22 03:38:14;;;;;;;;;;;;;;;16.75;49.16;100433.03;5387377;26;1250;-65
2024/04/22 03:40:40;;;;;;;;;;;;;;;16.48;48.44;100443.56;5387157;26;1848;-64
2024/04/22 03:43:05;;;;;;;;;;;;;;;17.35;49.19;100454.09;5388107;26;1290;-64
2024/04/22 03:45:31;;;;;;;;;;;;;;;16.71;49.25;100464.88;5386771;26;1269;-66
2024/04/22 03:50:42;;;;;;;;;;;;;;;16.39;47.53;100473.53;5386093;26;1263;-68
2024/04/22 03:53:07;;;;;;;;;;;;;;;16.36;47.58;100474.91;5386565;26;1163;-64
2024/04/22 03:55:33;;;;;;;;;;;;;;;17.49;48.64;100479.00;5386803;26;1282;-64
2024/04/22 03:57:59;;;;;;;;;;;;;;;16.64;49.32;100486.34;5386311;26;1171;-65
2024/04/22 04:00:24;;;;;;;;;;;;;;;17.84;48.63;100485.31;5385681;26;1255;-61
2024/04/22 04:02:50;;;;;;;;;;;;;;;17.41;49.71;100496.09;5384529;26;1864;-68
2024/04/22 04:05:15;;;;;;;;;;;;;;;17.96;48.69;100501.44;5385225;26;1131;-62
2024/04/22 04:07:41;;;;;;;;;;;;;;;17.47;49.64;100507.88;5385520;26;1185;-59
2024/04/22 04:10:06;;;;;;;;;;;;;;;17.11;50.42;100514.44;5385535;26;1168;-59
2024/04/22 04:12:32;;;;;;;;;;;;;;;16.90;50.99;100513.69;5385769;26;2825;-59
2024/04/22 04:14:57;;;;;;;;;;;;;;;16.65;51.42;100515.44;5385551;26;1299;-60
2024/04/22 04:17:23;;;;;;;;;;;;;;;16.48;51.98;100523.16;5386944;26;1127;-59
2024/04/22 04:19:49;;;;;;;;;;;;;;;16.41;52.06;100526.19;5385893;26;1196;-59
2024/04/22 04:22:14;;;;;;;;;;;;;;;16.18;52.44;100527.63;5386119;26;1856;-60
2024/04/22 04:24:40;;;;;;;;;;;;;;;16.08;52.61;100531.22;5386289;26;1104;-59
2024/04/22 04:27:05;;;;;;;;;;;;;;;15.98;52.72;100536.72;5385906;26;1406;-62
2024/04/22 04:29:31;;;;;;;;;;;;;;;17.06;50.60;100548.25;5385946;26;1373;-60
2024/04/22 04:31:56;;;;;;;;;;;;;;;17.46;49.26;100545.56;5385725;26;1155;-61
2024/04/22 04:34:23;;;;;;;;;;;;;;;16.69;51.41;100538.50;5386067;26;1128;-59
2024/04/22 04:36:49;;;;;;;;;;;;;;;16.46;51.74;100558.31;5385668;26;1172;-59
2024/04/22 04:39:14;;;;;;;;;;;;;;;16.29;52.19;100561.38;5385597;26;1117;-57
2024/04/22 04:41:39;;;;;;;;;;;;;;;16.11;52.53;100555.34;5387315;26;3060;-58
2024/04/22 04:44:05;;;;;;;;;;;;;;;16.83;51.19;100551.59;5385978;26;1271;-60
2024/04/22 04:46:31;;;;;;;;;;;;;;;17.83;48.28;100555.16;5386163;26;1145;-62
2024/04/22 04:48:56;;;;;;;;;;;;;;;16.94;50.61;100553.22;5385831;26;1176;-63
2024/04/22 04:51:21;;;;;;;;;;;;;;;16.49;51.69;100549.53;5385213;26;1515;-63
2024/04/22 04:53:48;;;;;;;;;;;;;;;16.28;52.24;100555.03;5385617;26;1164;-62
2024/04/22 04:56:13;;;;;;;;;;;;;;;16.08;52.75;100556.72;5385836;26;1267;-63
2024/04/22 04:58:39;;;;;;;;;;;;;;;17.22;50.06;100561.88;5385972;26;1120;-60
2024/04/22 05:01:04;;;;;;;;;;;;;;;17.53;49.08;100562.53;5385448;26;1822;-59
2024/04/22 05:03:29;;;;;;;;;;;;;;;16.86;50.80;100554.63;5385331;26;1506;-61
2024/04/22 05:05:56;;;;;;;;;;;;;;;16.43;51.83;100566.00;5385304;26;1216;-57
2024/04/22 05:08:21;;;;;;;;;;;;;;;16.30;52.17;100574.81;5384715;26;1258;-59
2024/04/22 05:10:47;;;;;;;;;;;;;;;17.42;49.78;100570.03;5384855;26;1208;-61
2024/04/22 05:13:12;;;;;;;;;;;;;;;17.47;49.22;100577.41;5384327;26;2154;-57
2024/04/22 05:15:38;;;;;;;;;;;;;;;16.77;51.07;100579.09;5385194;26;1275;-61
2024/04/22 05:18:03;;;;;;;;;;;;;;;16.51;51.95;100583.00;5384992;26;1247;-60
2024/04/22 05:20:29;;;;;;;;;;;;;;;16.33;52.13;100571.50;5385183;26;1218;-59
2024/04/22 05:22:55;;;;;;;;;;;;;;;16.49;52.18;100587.94;5384893;26;1867;-62
2024/04/22 05:25:21;;;;;;;;;;;;;;;17.92;48.55;100585.66;5385531;26;1121;-61
2024/04/22 05:27:46;;;;;;;;;;;;;;;17.07;50.28;100588.34;5384092;26;1301;-60
2024/04/22 05:30:12;;;;;;;;;;;;;;;16.52;51.81;100601.09;5384333;26;1241;-61
2024/04/22 05:32:38;;;;;;;;;;;;;;;16.33;52.37;100606.38;5384101;26;1156;-60
2024/04/22 05:37:47;;;;;;;;;;;;;;;18.02;48.43;100596.59;5384228;26;1124;-59
2024/04/22 05:40:12;;;;;;;;;;;;;;;17.25;50.51;100597.88;5384799;26;1274;-65
2024/04/22 05:42:38;;;;;;;;;;;;;;;16.98;51.63;100601.00;5384510;26;2319;-63
2024/04/22 05:45:04;;;;;;;;;;;;;;;16.85;52.14;100601.59;5383197;26;1187;-59
2024/04/22 05:47:29;;;;;;;;;;;;;;;16.50;52.87;100609.63;5383757;26;1183;-60
2024/04/22 05:49:55;;;;;;;;;;;;;;;16.38;53.02;100612.69;5384274;26;1186;-58
2024/04/22 05:52:21;;;;;;;;;;;;;;;16.19;53.39;100617.06;5383581;26;1175;-56
2024/04/22 05:54:47;;;;;;;;;;;;;;;16.18;53.32;100631.88;5383597;26;1112;-58
2024/04/22 05:57:12;;;;;;;;;;;;;;;16.52;53.26;100639.53;5382213;26;1170;-59
2024/04/22 05:59:38;;;;;;;;;;;;;;;17.64;50.41;100628.47;5379309;26;1182;-57
2024/04/22 06:02:03;;;;;;;;;;;;;;;16.76;52.51;100634.31;5381258;26;1830;-58
2024/04/22 06:04:32;;;;;;;;;;;;;;;16.43;53.17;100639.28;5383098;26;1338;-57
2024/04/22 06:06:57;;;;;;;;;;;;;;;16.19;53.66;100639.03;5384155;26;1224;-59
2024/04/22 06:09:23;;;;;;;;;;;;;;;16.10;53.58;100646.16;5384258;26;1278;-58
2024/04/22 06:11:48;;;;;;;;;;;;;;;16.41;53.37;100650.53;5382362;26;2818;-61
2024/04/22 06:14:14;;;;;;;;;;;;;;;17.73;50.11;100644.06;5383927;26;1278;-58
2024/04/22 06:16:39;;;;;;;;;;;;;;;17.06;51.45;100647.13;5383439;26;1116;-56
2024/04/22 06:19:05;;;;;;;;;;;;;;;16.60;52.61;100639.78;5380924;26;1194;-57
2024/04/22 06:21:30;;;;;;;;;;;;;;;16.29;53.18;100650.00;5382951;26;1871;-56
2024/04/22 06:23:56;;;;;;;;;;;;;;;16.33;53.56;100658.50;5381986;26;1108;-56
2024/04/22 06:26:22;;;;;;;;;;;;;;;17.79;49.94;100658.63;5383890;26;1351;-57
2024/04/22 06:28:47;;;;;;;;;;;;;;;17.22;50.84;100649.81;5383039;26;1282;-56
2024/04/22 06:31:13;;;;;;;;;;;;;;;16.86;52.15;100653.50;5383259;26;1268;-56
2024/04/22 06:33:42;;;;;;;;;;;;;;;16.54;52.84;100665.63;5384768;26;1207;-59
2024/04/22 06:36:11;;;;;;;;;;;;;;;16.32;53.26;100670.56;5384203;26;1309;-57
2024/04/22 06:38:36;;;;;;;;;;;;;;;16.18;53.33;100670.28;5383970;26;1587;-58
2024/04/22 06:41:02;;;;;;;;;;;;;;;15.98;53.72;100682.06;5381464;26;1822;-55
2024/04/22 06:43:28;;;;;;;;;;;;;;;17.26;51.41;100681.13;5384273;26;2790;-57
2024/04/22 06:45:53;;;;;;;;;;;;;;;17.58;50.38;100683.47;5384101;26;1235;-59
2024/04/22 06:48:19;;;;;;;;;;;;;;;16.85;52.20;100697.72;5383577;26;1119;-58
2024/04/22 06:50:44;;;;;;;;;;;;;;;16.49;53.11;100689.50;5383604;26;1184;-56
2024/04/22 06:53:10;;;;;;;;;;;;;;;16.25;53.34;100690.84;5382758;26;1174;-56
2024/04/22 06:55:35;;;;;;;;;;;;;;;16.10;53.44;100701.00;5383645;26;1275;-57
2024/04/22 06:58:01;;;;;;;;;;;;;;;16.21;53.68;100691.69;5383798;26;1148;-52
2024/04/22 07:00:28;;;;;;;;;;;;;;;17.64;50.40;100688.94;5383159;26;1500;-57
2024/04/22 07:02:54;;;;;;;;;;;;;;;17.18;51.29;100692.69;5383003;26;1822;-58
2024/04/22 07:05:20;;;;;;;;;;;;;;;16.68;52.54;100704.31;5382921;26;1204;-55
2024/04/22 07:07:45;;;;;;;;;;;;;;;16.40;52.97;100706.50;5383235;26;1236;-56
2024/04/22 07:10:11;;;;;;;;;;;;;;;16.23;53.32;100715.00;5383428;26;1172;-59
2024/04/22 07:12:36;;;;;;;;;;;;;;;16.06;53.69;100725.41;5387451;26;2863;-58
2024/04/22 07:15:02;;;;;;;;;;;;;;;17.27;51.23;100729.50;5383245;26;1176;-58
2024/04/22 07:17:27;;;;;;;;;;;;;;;17.51;50.36;100724.19;5382557;26;1304;-60
2024/04/22 07:19:53;;;;;;;;;;;;;;;16.71;52.34;100728.47;5382119;26;1278;-60
2024/04/22 07:22:20;;;;;;;;;;;;;;;16.43;52.99;100732.59;5382412;26;1873;-59
2024/04/22 07:24:46;;;;;;;;;;;;;;;16.30;53.16;100738.59;5385807;26;1313;-50
2024/04/22 07:27:12;;;;;;;;;;;;;;;16.14;53.42;100741.31;5386210;26;1487;-59
2024/04/22 07:29:37;;;;;;;;;;;;;;;16.04;53.79;100753.09;5385473;26;1419;-55
2024/04/22 07:32:03;;;;;;;;;;;;;;;17.47;50.52;100739.59;5386198;26;1232;-56
2024/04/22 07:34:29;;;;;;;;;;;;;;;17.54;50.32;100753.06;5383718;26;1170;-57
2024/04/22 07:37:02;;;;;;;;;;;;;;;16.74;52.39;100754.56;5384422;26;1221;-55
2024/04/22 07:39:28;;;;;;;;;;;;;;;16.49;52.81;100758.94;5384924;26;1402;-54
2024/04/22 07:41:53;;;;;;;;;;;;;;;16.24;53.51;100771.53;5384964;26;2681;-50
2024/04/22 07:44:19;;;;;;;;;;;;;;;16.77;52.75;100781.47;5385108;26;1188;-57
2024/04/22 07:46:45;;;;;;;;;;;;;;;17.84;49.78;100779.63;5384634;26;1350;-58
2024/04/22 07:49:10;;;;;;;;;;;;;;;16.97;51.85;100796.31;5384666;26;1390;-57
2024/04/22 07:51:39;;;;;;;;;;;;;;;16.55;52.67;100804.53;5385114;26;1125;-56
2024/04/22 07:54:04;;;;;;;;;;;;;;;16.39;53.09;100809.16;5385368;26;1148;-58
2024/04/22 07:56:30;;;;;;;;;;;;;;;16.22;53.28;100803.91;5386910;26;1204;-60
2024/04/22 07:58:56;;;;;;;;;;;;;;;16.86;52.32;100811.97;5386949;26;1290;-58
2024/04/22 08:01:21;;;;;;;;;;;;;;;17.93;49.23;100804.63;5384890;26;1833;-58
2024/04/22 08:03:47;;;;;;;;;;;;;;;16.87;52.05;100808.09;5386342;26;1283;-59
2024/04/22 08:06:22;;;;;;;;;;;;;;;16.61;52.62;100816.34;5386002;26;1226;-56
2024/04/22 08:08:47;;;;;;;;;;;;;;;16.42;52.93;100811.38;5385622;26;1168;-59
2024/04/22 08:11:13;;;;;;;;;;;;;;;16.23;53.25;100816.53;5355272;26;2742;-55
2024/04/22 08:13:39;;;;;;;;;;;;;;;16.07;53.37;100809.34;5350186;26;1319;-57
2024/04/22 08:16:05;;;;;;;;;;;;;;;16.70;52.62;100805.63;5385567;26;1184;-57
2024/04/22 08:18:33;;;;;;;;;;;;;;;17.69;50.42;100807.19;5385117;26;1143;-58
2024/04/22 08:20:59;;;;;;;;;;;;;;;16.75;52.44;100809.19;5385722;26;1822;-58
2024/04/22 08:23:25;;;;;;;;;;;;;;;16.45;53.26;100818.22;5386143;26;1168;-58
2024/04/22 08:25:50;;;;;;;;;;;;;;;16.19;53.69;100822.84;5385851;26;1241;-58
2024/04/22 08:28:16;;;;;;;;;;;;;;;16.01;54.12;100818.66;5384793;26;1256;-58
2024/04/22 08:30:41;;;;;;;;;;;;;;;16.00;53.86;100833.47;5382608;26;1378;-58
2024/04/22 08:33:07;;;;;;;;;;;;;;;16.47;53.33;100828.94;5386082;26;1100;-58
2024/04/22 08:35:32;;;;;;;;;;;;;;;17.77;50.15;100826.66;5386227;26;1264;-58
2024/04/22 08:37:58;;;;;;;;;;;;;;;16.87;52.13;100830.06;5353780;26;1307;-59
2024/04/22 08:40:23;;;;;;;;;;;;;;;16.46;53.54;100830.84;5385554;26;1172;-59
2024/04/22 08:42:49;;;;;;;;;;;;;;;16.32;53.56;100836.03;5385806;26;2784;-59
2024/04/22 08:45:14;;;;;;;;;;;;;;;16.16;53.96;100848.03;5386432;26;1116;-58
2024/04/22 08:47:40;;;;;;;;;;;;;;;17.01;52.23;100861.44;5385483;26;1243;-59
2024/04/22 08:50:06;;;;;;;;;;;;;;;17.50;50.58;100859.19;5386393;26;1124;-59
2024/04/22 08:52:31;;;;;;;;;;;;;;;16.72;52.74;100866.59;5385502;26;1319;-60
2024/04/22 08:54:57;;;;;;;;;;;;;;;16.40;53.33;100859.38;5354584;26;1087;-59
2024/04/22 08:57:22;;;;;;;;;;;;;;;16.24;53.49;100866.72;5385698;26;1345;-60
2024/04/22 08:59:48;;;;;;;;;;;;;;;16.08;53.86;100861.19;5384577;26;1342;-60
2024/04/22 09:02:14;;;;;;;;;;;;;;;16.04;54.03;100868.31;5385309;26;1873;-61
2024/04/22 09:04:40;;;;;;;;;;;;;;;17.43;51.04;100863.06;5385425;26;1313;-60
2024/04/22 09:07:08;;;;;;;;;;;;;;;17.34;50.97;100870.19;5385189;26;1199;-63
2024/04/22 09:09:33;;;;;;;;;;;;;;;16.67;52.74;100875.63;5385809;26;1176;-63
2024/04/22 09:11:59;;;;;;;;;;;;;;;16.37;53.28;100888.19;5385322;26;2828;-64
2024/04/22 09:14:25;;;;;;;;;;;;;;;16.23;53.71;100889.78;5384512;26;1260;-58
2024/04/22 09:16:51;;;;;;;;;;;;;;;16.07;53.76;100888.88;5384663;26;1259;-57
2024/04/22 09:19:20;;;;;;;;;;;;;;;17.04;52.14;100893.84;5384146;26;991;-58
2024/04/22 09:21:46;;;;;;;;;;;;;;;17.42;50.75;100891.63;5384427;26;1826;-59
2024/04/22 09:24:11;;;;;;;;;;;;;;;16.67;52.74;100903.09;5384912;26;1226;-59
2024/04/22 09:26:37;;;;;;;;;;;;;;;16.33;53.47;100913.72;5384507;26;1387;-56
2024/04/22 09:29:03;;;;;;;;;;;;;;;16.19;53.53;100913.38;5383520;26;1676;-58
2024/04/22 09:31:29;;;;;;;;;;;;;;;16.14;53.60;100910.59;5353167;26;1086;-57
2024/04/22 09:33:56;;;;;;;;;;;;;;;15.94;53.97;100911.31;5383659;26;1036;-58
2024/04/22 09:36:21;;;;;;;;;;;;;;;15.90;53.96;100916.50;5353365;26;1582;-57
2024/04/22 09:38:47;;;;;;;;;;;;;;;17.02;52.15;100918.00;5383887;26;1120;-58
2024/04/22 09:41:12;;;;;;;;;;;;;;;17.44;50.63;100905.91;5384328;26;2749;-57
2024/04/22 09:43:38;;;;;;;;;;;;;;;16.68;52.76;100914.91;5384057;26;1111;-56
2024/04/22 09:46:03;;;;;;;;;;;;;;;16.32;53.43;100903.81;5382018;26;1258;-57
2024/04/22 09:48:29;;;;;;;;;;;;;;;16.13;53.85;100908.94;5384356;26;1152;-58
2024/04/22 09:50:55;;;;;;;;;;;;;;;16.02;54.01;100914.38;5384487;26;1346;-56
2024/04/22 09:53:20;;;;;;;;;;;;;;;16.87;52.48;100918.81;5352927;26;1144;-58
2024/04/22 09:55:46;;;;;;;;;;;;;;;17.88;49.63;100914.66;5353107;26;1224;-58
2024/04/22 09:58:12;;;;;;;;;;;;;;;16.90;51.95;100917.44;5385087;26;1155;-57
2024/04/22 10:00:37;;;;;;;;;;;;;;;16.53;53.01;100924.75;5333493;26;1214;-58
2024/04/22 10:03:03;;;;;;;;;;;;;;;16.39;53.00;100924.41;5358682;26;1832;-57
2024/04/22 10:05:28;;;;;;;;;;;;;;;16.17;53.82;100923.78;5353029;26;1267;-57
2024/04/22 10:07:54;;;;;;;;;;;;;;;16.12;53.81;100940.19;5352143;26;1274;-57
2024/04/22 10:10:20;;;;;;;;;;;;;;;16.97;52.24;100931.75;5352889;26;1260;-56
2024/04/22 10:12:45;;;;;;;;;;;;;;;17.61;50.27;100932.31;5383281;26;2289;-57
2024/04/22 10:15:11;;;;;;;;;;;;;;;16.79;52.45;100937.72;5383890;26;1465;-57
2024/04/22 10:17:37;;;;;;;;;;;;;;;16.43;53.25;100939.25;5352554;26;1326;-59
2024/04/22 10:20:03;;;;;;;;;;;;;;;16.29;53.29;100940.03;5382992;26;1194;-60
2024/04/22 10:22:34;;;;;;;;;;;;;;;16.14;53.83;100938.03;5383462;26;1883;-58
2024/04/22 10:25:05;;;;;;;;;;;;;;;15.97;54.06;100944.50;5322756;26;1283;-57
2024/04/22 10:27:31;;;;;;;;;;;;;;;15.87;54.09;100939.78;5366463;26;1270;-58
2024/04/22 10:29:58;;;;;;;;;;;;;;;16.88;52.45;100950.66;5382555;26;1493;-57
2024/04/22 10:32:23;;;;;;;;;;;;;;;17.93;49.75;100944.94;5383485;26;1354;-57
2024/04/22 10:34:49;;;;;;;;;;;;;;;17.04;51.68;100946.06;5383327;26;1210;-58
2024/04/22 10:37:14;;;;;;;;;;;;;;;16.55;53.06;100950.00;5383426;26;1265;-57
2024/04/22 10:39:40;;;;;;;;;;;;;;;16.36;53.49;100960.63;5382591;26;1320;-58
2024/04/22 10:42:06;;;;;;;;;;;;;;;16.16;53.68;100964.09;5393908;26;2947;-57
2024/04/22 10:44:31;;;;;;;;;;;;;;;16.21;54.01;100955.88;5383248;26;1156;-57
2024/04/22 10:46:59;;;;;;;;;;;;;;;17.55;50.47;100933.41;5352409;26;1224;-58
2024/04/22 10:49:31;;;;;;;;;;;;;;;17.12;51.55;100957.59;5382820;26;1410;-58
2024/04/22 10:51:57;;;;;;;;;;;;;;;16.56;52.93;100959.06;5381718;26;1398;-55
2024/04/22 10:54:22;;;;;;;;;;;;;;;16.46;53.23;100959.03;5381846;26;1360;-57
2024/04/22 10:56:47;;;;;;;;;;;;;;;16.21;53.81;100963.31;5381577;26;1550;-56
2024/04/22 10:59:13;;;;;;;;;;;;;;;16.14;53.78;100965.47;5385804;26;1204;-59
2024/04/22 11:01:41;;;;;;;;;;;;;;;16.05;54.13;100971.44;5386770;26;1838;-55
2024/04/22 11:04:07;;;;;;;;;;;;;;;17.56;50.79;100977.13;5386576;26;1465;-57
2024/04/22 11:06:33;;;;;;;;;;;;;;;17.06;51.91;100976.00;5386203;26;1266;-55
2024/04/22 11:08:59;;;;;;;;;;;;;;;16.56;52.93;100978.28;5385291;26;1338;-60
2024/04/22 11:11:24;;;;;;;;;;;;;;;16.43;53.30;100990.59;5352911;26;2946;-54
2024/04/22 11:13:50;;;;;;;;;;;;;;;16.18;53.88;100983.84;5385491;26;1184;-60
2024/04/22 11:16:16;;;;;;;;;;;;;;;16.07;54.26;100971.19;5355905;26;1132;-57
2024/04/22 11:18:42;;;;;;;;;;;;;;;16.66;53.31;100983.84;5385630;26;1253;-59
2024/04/22 11:21:07;;;;;;;;;;;;;;;17.90;50.00;100979.28;5386178;26;1829;-55
2024/04/22 11:23:33;;;;;;;;;;;;;;;17.02;52.11;100983.94;5386008;26;1199;-54
2024/04/22 11:25:59;;;;;;;;;;;;;;;16.64;53.12;100979.69;5310598;26;1340;-56
2024/04/22 11:28:24;;;;;;;;;;;;;;;16.32;53.68;100973.22;5385048;26;1292;-56
2024/04/22 11:30:50;;;;;;;;;;;;;;;16.20;53.87;100975.38;5384898;26;1359;-57
2024/04/22 11:33:15;;;;;;;;;;;;;;;16.07;54.12;100977.50;5386297;26;1133;-56
2024/04/22 11:35:41;;;;;;;;;;;;;;;15.95;54.45;100974.13;5354777;26;1340;-55
2024/04/22 11:38:14;;;;;;;;;;;;;;;16.65;53.20;100986.81;5386092;26;1390;-57
2024/04/22 11:40:40;;;;;;;;;;;;;;;17.90;50.14;100976.53;5354988;26;1470;-57
2024/04/22 11:43:05;;;;;;;;;;;;;;;17.08;51.80;100987.53;5385952;26;2891;-57
2024/04/22 11:45:31;;;;;;;;;;;;;;;16.59;53.32;100984.06;5385561;26;1391;-50
2024/04/22 11:47:56;;;;;;;;;;;;;;;16.37;53.70;100987.00;5386004;26;1364;-53
2024/04/22 11:50:21;;;;;;;;;;;;;;;16.29;53.81;100981.19;5385698;26;1230;-52
2024/04/22 11:52:47;;;;;;;;;;;;;;;16.07;54.07;100985.75;5384989;26;1281;-54
2024/04/22 11:55:13;;;;;;;;;;;;;;;16.06;54.11;100986.81;5385364;26;1317;-55
2024/04/22 11:57:40;;;;;;;;;;;;;;;17.08;52.24;100980.13;5385749;26;1155;-52
2024/04/22 12:00:07;;;;;;;;;;;;;;;17.53;50.87;100982.34;5385206;26;1382;-56
2024/04/22 12:02:34;;;;;;;;;;;;;;;16.75;52.89;100993.19;5385557;26;1824;-54
2024/04/22 12:05:06;;;;;;;;;;;;;;;16.46;53.54;100990.03;5385177;26;1309;-55
2024/04/22 12:07:31;;;;;;;;;;;;;;;16.25;53.84;100986.38;5384945;26;1571;-53
2024/04/22 12:09:57;;;;;;;;;;;;;;;16.12;53.83;100989.56;5384041;26;1360;-55
2024/04/22 12:12:22;;;;;;;;;;;;;;;15.94;54.50;100988.13;5385411;26;2655;-58
2024/04/22 12:14:48;;;;;;;;;;;;;;;16.08;54.42;100987.38;5385366;26;1168;-57
2024/04/22 12:17:14;;;;;;;;;;;;;;;17.48;51.28;100987.88;5383491;26;1563;-57
2024/04/22 12:19:40;;;;;;;;;;;;;;;17.36;51.30;100979.88;5385292;26;1137;-57
2024/04/22 12:22:05;;;;;;;;;;;;;;;16.73;52.81;100989.03;5384830;26;1826;-57
2024/04/22 12:24:30;;;;;;;;;;;;;;;16.45;53.56;100988.38;5385229;26;1204;-56
2024/04/22 12:26:57;;;;;;;;;;;;;;;16.24;53.85;100987.47;5385122;26;1416;-58
2024/04/22 12:29:23;;;;;;;;;;;;;;;16.14;53.94;100982.75;5384635;26;1431;-56
2024/04/22 12:31:48;;;;;;;;;;;;;;;16.01;54.13;100978.56;5384521;26;1404;-58
2024/04/22 12:34:14;;;;;;;;;;;;;;;15.93;54.17;100991.94;5343322;26;1394;-57
2024/04/22 12:36:40;;;;;;;;;;;;;;;17.24;51.85;100991.13;5376555;26;1245;-58
2024/04/22 12:39:05;;;;;;;;;;;;;;;17.73;50.34;100998.03;5383351;26;1206;-52
2024/04/22 12:41:31;;;;;;;;;;;;;;;16.89;52.42;100976.22;5384501;26;2794;-55
2024/04/22 12:43:56;;;;;;;;;;;;;;;16.77;53.38;100980.03;5384559;26;1316;-56
2024/04/22 12:46:22;;;;;;;;;;;;;;;16.60;53.97;100987.63;5385734;26;1132;-59